createdAt,value
2023-12-23T00:00:57.652Z,96223.16
2023-12-23T00:03:24.841Z,96227.09
2023-12-23T00:05:52.352Z,96238.88
2023-12-23T00:08:19.566Z,96261.50
2023-12-23T00:10:46.689Z,96298.41
2023-12-23T00:13:13.927Z,96290.38
2023-12-23T00:15:41.042Z,96274.31
2023-12-23T00:18:08.305Z,96288.53
2023-12-23T00:20:35.580Z,96282.19
2023-12-23T00:23:03.051Z,96292.25
2023-12-23T00:25:30.150Z,96292.25
2023-12-23T00:27:57.270Z,96311.09
2023-12-23T00:30:24.364Z,96307.44
2023-12-23T00:32:52.302Z,96304.28
2023-12-23T00:35:19.689Z,96303.09
2023-12-23T00:37:46.963Z,96323.44
2023-12-23T00:40:14.448Z,96313.91
2023-12-23T00:42:41.551Z,96332.53
2023-12-23T00:45:08.803Z,96329.56
2023-12-23T00:47:38.361Z,96337.19
2023-12-23T00:50:06.812Z,96329.63
2023-12-23T00:52:34.144Z,96339.91
2023-12-23T00:55:02.045Z,96351.63
2023-12-23T00:57:29.441Z,96354.53
2023-12-23T00:59:56.573Z,96348.19
2023-12-23T01:02:23.648Z,96355.75
2023-12-23T01:04:50.848Z,96357.94
2023-12-23T01:07:18.344Z,96371.66
2023-12-23T01:09:45.647Z,96373.13
2023-12-23T01:12:12.856Z,96362.59
2023-12-23T01:14:39.978Z,96367.97
2023-12-23T01:17:07.103Z,96381.19
2023-12-23T01:19:34.238Z,96392.69
2023-12-23T01:22:01.707Z,96390.00
2023-12-23T01:24:28.834Z,96407.63
2023-12-23T01:26:56.979Z,96408.38
2023-12-23T01:29:24.140Z,96411.81
2023-12-23T01:31:51.319Z,96427.22
2023-12-23T01:34:18.648Z,96437.75
2023-12-23T01:36:45.753Z,96439.44
2023-12-23T01:39:12.962Z,96446.28
2023-12-23T01:41:40.030Z,96457.31
2023-12-23T01:44:07.191Z,96463.66
2023-12-23T01:46:34.378Z,96472.72
2023-12-23T01:49:02.179Z,96473.69
2023-12-23T01:51:29.726Z,96481.50
2023-12-23T01:54:05.714Z,96486.91
2023-12-23T01:56:33.410Z,96502.56
2023-12-23T01:59:03.708Z,96519.69
2023-12-23T02:01:32.337Z,96520.69
2023-12-23T02:03:59.788Z,96522.38
2023-12-23T02:06:27.720Z,96533.63
2023-12-23T02:08:55.220Z,96546.88
2023-12-23T02:11:37.670Z,96541.03
2023-12-23T02:14:21.186Z,96554.28
2023-12-23T02:16:48.805Z,96568.75
2023-12-23T02:19:16.623Z,96561.66
2023-12-23T02:21:43.937Z,96584.22
2023-12-23T02:24:11.073Z,96577.34
2023-12-23T02:26:38.973Z,96581.28
2023-12-23T02:29:07.577Z,96577.13
2023-12-23T02:31:35.312Z,96583.72
2023-12-23T02:34:03.110Z,96581.78
2023-12-23T02:36:30.520Z,96585.22
2023-12-23T02:38:57.778Z,96576.38
2023-12-23T02:41:24.924Z,96584.47
2023-12-23T02:43:52.212Z,96599.88
2023-12-23T02:46:20.009Z,96602.56
2023-12-23T02:48:47.301Z,96622.19
2023-12-23T02:51:14.627Z,96627.09
2023-12-23T02:53:41.774Z,96637.38
2023-12-23T02:56:08.882Z,96644.97
2023-12-23T02:58:35.999Z,96639.56
2023-12-23T03:01:08.570Z,96650.13
2023-12-23T03:03:36.424Z,96656.75
2023-12-23T03:06:04.314Z,96661.41
2023-12-23T03:08:32.355Z,96679.25
2023-12-23T03:10:59.887Z,96682.44
2023-12-23T03:13:27.350Z,96682.94
2023-12-23T03:15:55.017Z,96693.50
2023-12-23T03:18:22.335Z,96712.34
2023-12-23T03:20:51.490Z,96704.00
2023-12-23T03:23:18.834Z,96695.69
2023-12-23T03:25:46.221Z,96696.91
2023-12-23T03:28:13.556Z,96725.06
2023-12-23T03:30:40.947Z,96725.56
2023-12-23T03:33:08.304Z,96734.16
2023-12-23T03:35:36.108Z,96730.72
2023-12-23T03:38:03.430Z,96729.50
2023-12-23T03:40:30.774Z,96738.81
2023-12-23T03:42:58.261Z,96750.31
2023-12-23T03:45:25.364Z,96740.75
2023-12-23T03:47:52.896Z,96742.69
2023-12-23T03:50:20.156Z,96742.69
2023-12-23T03:52:47.604Z,96738.81
2023-12-23T03:55:14.783Z,96752.75
2023-12-23T03:57:44.193Z,96760.34
2023-12-23T04:00:12.030Z,96751.78
2023-12-23T04:02:39.229Z,96759.59
2023-12-23T04:05:08.131Z,96757.91
2023-12-23T04:07:35.228Z,96766.00
2023-12-23T04:10:02.347Z,96757.41
2023-12-23T04:12:29.493Z,96774.56
2023-12-23T04:14:56.587Z,96772.59
2023-12-23T04:17:23.843Z,96784.09
2023-12-23T04:19:51.680Z,96788.75
2023-12-23T04:22:18.830Z,96780.69
2023-12-23T04:24:45.982Z,96788.75
2023-12-23T04:27:16.679Z,96773.09
2023-12-23T04:29:43.875Z,96773.59
2023-12-23T04:32:11.769Z,96785.09
2023-12-23T04:34:39.074Z,96779.72
2023-12-23T04:37:06.574Z,96785.09
2023-12-23T04:39:33.937Z,96790.50
2023-12-23T04:42:01.154Z,96793.44
2023-12-23T04:44:31.030Z,96802.97
2023-12-23T04:46:58.269Z,96792.69
2023-12-23T04:49:25.864Z,96798.81
2023-12-23T04:51:53.219Z,96807.16
2023-12-23T04:54:23.649Z,96816.69
2023-12-23T04:56:50.864Z,96796.38
2023-12-23T04:59:23.386Z,96794.91
2023-12-23T05:01:51.302Z,96798.84
2023-12-23T05:04:22.015Z,96799.81
2023-12-23T05:06:49.110Z,96792.47
2023-12-23T05:09:16.226Z,96791.22
2023-12-23T05:11:43.289Z,96784.63
2023-12-23T05:14:16.460Z,96784.13
2023-12-23T05:16:49.299Z,96773.59
2023-12-23T05:19:16.526Z,96777.78
2023-12-23T05:21:45.382Z,96772.84
2023-12-23T05:24:12.572Z,96778.50
2023-12-23T05:26:39.756Z,96777.28
2023-12-23T05:29:06.939Z,96768.69
2023-12-23T05:31:35.324Z,96768.22
2023-12-23T05:34:02.543Z,96767.47
2023-12-23T05:36:29.890Z,96760.13
2023-12-23T05:38:57.007Z,96761.81
2023-12-23T05:41:24.299Z,96762.09
2023-12-23T05:43:51.481Z,96758.16
2023-12-23T05:46:19.034Z,96763.78
2023-12-23T05:48:46.409Z,96757.91
2023-12-23T05:51:13.623Z,96754.47
2023-12-23T05:53:40.738Z,96749.09
2023-12-23T05:56:09.004Z,96740.25
2023-12-23T05:58:36.592Z,96737.06
2023-12-23T06:01:05.799Z,96735.59
2023-12-23T06:03:33.034Z,96727.50
2023-12-23T06:06:00.291Z,96717.97
2023-12-23T06:08:27.474Z,96706.94
2023-12-23T06:10:58.523Z,96703.75
2023-12-23T06:13:29.024Z,96694.94
2023-12-23T06:15:56.314Z,96697.38
2023-12-23T06:18:23.534Z,96708.16
2023-12-23T06:20:50.990Z,96702.03
2023-12-23T06:23:20.844Z,96704.25
2023-12-23T06:25:48.074Z,96699.81
2023-12-23T06:28:15.213Z,96707.19
2023-12-23T06:30:43.296Z,96704.72
2023-12-23T06:33:10.541Z,96704.47
2023-12-23T06:35:37.731Z,96704.75
2023-12-23T06:38:05.106Z,96705.72
2023-12-23T06:40:32.268Z,96702.53
2023-12-23T06:42:59.466Z,96697.16
2023-12-23T06:45:26.587Z,96703.53
2023-12-23T06:47:53.847Z,96702.06
2023-12-23T06:50:21.605Z,96707.22
2023-12-23T06:52:49.188Z,96702.78
2023-12-23T06:55:16.517Z,96701.06
2023-12-23T06:57:43.756Z,96692.03
2023-12-23T07:00:11.399Z,96686.13
2023-12-23T07:02:38.543Z,96686.38
2023-12-23T07:05:06.270Z,96674.16
2023-12-23T07:07:33.423Z,96683.91
2023-12-23T07:10:04.982Z,96676.59
2023-12-23T07:12:34.898Z,96676.81
2023-12-23T07:15:04.179Z,96676.56
2023-12-23T07:17:38.608Z,96658.94
2023-12-23T07:20:10.777Z,96658.44
2023-12-23T07:22:38.070Z,96658.69
2023-12-23T07:25:15.210Z,96656.97
2023-12-23T07:27:42.713Z,96645.22
2023-12-23T07:30:10.654Z,96641.56
2023-12-23T07:32:38.841Z,96634.72
2023-12-23T07:35:08.214Z,96632.25
2023-12-23T07:37:35.384Z,96620.00
2023-12-23T07:40:05.909Z,96619.50
2023-12-23T07:42:33.061Z,96606.03
2023-12-23T07:45:04.527Z,96602.63
2023-12-23T07:47:31.869Z,96598.97
2023-12-23T07:49:59.165Z,96585.50
2023-12-23T07:52:26.266Z,96587.47
2023-12-23T07:54:59.818Z,96574.25
2023-12-23T07:57:51.091Z,96570.31
2023-12-23T08:01:33.936Z,96573.47
2023-12-23T08:11:50.917Z,96570.56
2023-12-23T08:14:18.148Z,96567.88
2023-12-23T08:16:45.420Z,96566.63
2023-12-23T08:19:13.961Z,96557.34
2023-12-23T08:21:41.852Z,96552.19
2023-12-23T08:24:09.038Z,96547.03
2023-12-23T08:26:36.255Z,96546.56
2023-12-23T08:29:03.457Z,96541.41
2023-12-23T08:31:30.643Z,96543.09
2023-12-23T08:33:57.828Z,96542.38
2023-12-23T08:36:24.966Z,96535.28
2023-12-23T08:38:54.652Z,96534.56
2023-12-23T08:41:21.827Z,96535.53
2023-12-23T08:43:49.009Z,96539.22
2023-12-23T08:46:16.760Z,96531.13
2023-12-23T08:48:43.909Z,96536.75
2023-12-23T08:51:11.157Z,96527.44
2023-12-23T08:53:38.343Z,96525.47
2023-12-23T08:56:06.758Z,96532.09
2023-12-23T08:58:33.955Z,96513.97
2023-12-23T09:01:01.533Z,96501.50
2023-12-23T09:03:30.526Z,96497.56
2023-12-23T09:05:58.491Z,96501.50
2023-12-23T09:08:25.918Z,96494.16
2023-12-23T09:10:53.079Z,96489.50
2023-12-23T09:13:20.139Z,96489.50
2023-12-23T09:15:47.530Z,96494.16
2023-12-23T09:18:14.712Z,96495.38
2023-12-23T09:20:44.714Z,96481.91
2023-12-23T09:23:11.939Z,96482.19
2023-12-23T09:25:39.131Z,96489.53
2023-12-23T09:28:06.556Z,96486.09
2023-12-23T09:30:33.758Z,96490.00
2023-12-23T09:33:00.938Z,96483.16
2023-12-23T09:35:28.144Z,96483.16
2023-12-23T09:37:55.338Z,96486.34
2023-12-23T09:40:22.538Z,96468.22
2023-12-23T09:42:49.836Z,96480.97
2023-12-23T09:45:17.839Z,96472.16
2023-12-23T09:47:45.068Z,96468.00
2023-12-23T09:50:12.466Z,96461.88
2023-12-23T09:52:40.233Z,96470.44
2023-12-23T09:55:10.530Z,96460.19
2023-12-23T09:57:38.008Z,96463.34
2023-12-23T10:00:05.846Z,96465.06
2023-12-23T10:02:32.973Z,96470.22
2023-12-23T10:05:00.148Z,96453.56
2023-12-23T10:07:27.677Z,96449.41
2023-12-23T10:09:54.764Z,96441.81
2023-12-23T10:12:21.949Z,96434.72
2023-12-23T10:14:49.390Z,96438.38
2023-12-23T10:17:18.445Z,96433.00
2023-12-23T10:19:48.057Z,96422.22
2023-12-23T10:22:17.545Z,96418.28
2023-12-23T10:24:44.691Z,96404.31
2023-12-23T10:27:12.319Z,96405.78
2023-12-23T10:29:41.043Z,96400.41
2023-12-23T10:32:09.900Z,96391.84
2023-12-23T10:34:48.696Z,96398.69
2023-12-23T10:37:17.253Z,96390.84
2023-12-23T10:39:53.923Z,96389.63
2023-12-23T10:42:24.537Z,96387.66
2023-12-23T10:44:52.400Z,96381.03
2023-12-23T10:47:19.719Z,96389.13
2023-12-23T10:49:49.153Z,96395.25
2023-12-23T10:52:16.573Z,96387.16
2023-12-23T10:54:44.332Z,96394.00
2023-12-23T10:57:12.262Z,96399.38
2023-12-23T10:59:39.543Z,96391.31
2023-12-23T11:02:14.842Z,96392.53
2023-12-23T11:04:48.263Z,96394.50
2023-12-23T11:07:17.562Z,96388.38
2023-12-23T11:09:46.901Z,96395.50
2023-12-23T11:12:16.414Z,96390.84
2023-12-23T11:14:43.796Z,96383.50
2023-12-23T11:17:31.220Z,96391.09
2023-12-23T11:20:03.133Z,96388.38
2023-12-23T11:22:31.473Z,96392.81
2023-12-23T11:24:58.617Z,96395.75
2023-12-23T11:27:38.730Z,96397.25
2023-12-23T11:30:07.460Z,96400.16
2023-12-23T11:32:40.273Z,96403.59
2023-12-23T11:35:15.150Z,96414.34
2023-12-23T11:37:55.347Z,96412.16
2023-12-23T11:40:23.007Z,96418.28
2023-12-23T11:42:51.172Z,96415.34
2023-12-23T11:45:18.672Z,96421.47
2023-12-23T11:47:46.110Z,96424.16
2023-12-23T11:50:13.731Z,96424.16
2023-12-23T11:52:41.946Z,96430.28
2023-12-23T11:55:09.663Z,96431.75
2023-12-23T11:57:37.086Z,96429.78
2023-12-23T12:00:08.217Z,96430.28
2023-12-23T12:02:35.410Z,96432.47
2023-12-23T12:05:03.107Z,96438.59
2023-12-23T12:07:31.467Z,96437.13
2023-12-23T12:09:58.627Z,96440.06
2023-12-23T12:12:25.765Z,96444.94
2023-12-23T12:14:52.885Z,96442.25
2023-12-23T12:17:20.406Z,96448.88
2023-12-23T12:19:47.577Z,96443.97
2023-12-23T12:22:14.747Z,96449.38
2023-12-23T12:24:43.366Z,96450.59
2023-12-23T12:27:10.984Z,96450.59
2023-12-23T12:29:38.288Z,96456.47
2023-12-23T12:32:05.641Z,96462.34
2023-12-23T12:34:32.788Z,96455.25
2023-12-23T12:36:59.851Z,96457.47
2023-12-23T12:39:27.497Z,96465.28
2023-12-23T12:41:54.601Z,96470.19
2023-12-23T12:44:22.190Z,96477.78
2023-12-23T12:46:56.239Z,96485.84
2023-12-23T12:49:26.258Z,96489.28
2023-12-23T12:51:54.170Z,96489.78
2023-12-23T12:54:24.978Z,96487.06
2023-12-23T12:56:52.231Z,96501.78
2023-12-23T12:59:19.421Z,96495.66
2023-12-23T13:01:46.688Z,96506.66
2023-12-23T13:04:13.936Z,96511.31
2023-12-23T13:06:41.196Z,96511.06
2023-12-23T13:09:08.541Z,96521.13
2023-12-23T13:11:36.470Z,96523.81
2023-12-23T13:14:03.576Z,96530.66
2023-12-23T13:16:30.749Z,96530.66
2023-12-23T13:19:00.666Z,96545.59
2023-12-23T13:21:29.178Z,96546.81
2023-12-23T13:23:56.497Z,96552.94
2023-12-23T13:26:23.800Z,96558.09
2023-12-23T13:28:52.594Z,96562.47
2023-12-23T13:31:21.594Z,96559.78
2023-12-23T13:33:48.843Z,96561.00
2023-12-23T13:36:16.113Z,96570.56
2023-12-23T13:38:46.193Z,96579.13
2023-12-23T13:41:16.866Z,96583.06
2023-12-23T13:43:44.356Z,96580.13
2023-12-23T13:46:11.782Z,96580.84
2023-12-23T13:48:39.099Z,96592.84
2023-12-23T13:51:06.514Z,96594.06
2023-12-23T13:53:33.782Z,96599.19
2023-12-23T13:56:00.934Z,96608.00
2023-12-23T13:58:28.043Z,96611.94
2023-12-23T14:00:55.879Z,96621.97
2023-12-23T14:03:23.149Z,96615.13
2023-12-23T14:05:50.449Z,96623.19
2023-12-23T14:08:17.729Z,96621.72
2023-12-23T14:10:49.704Z,96625.66
2023-12-23T14:13:17.285Z,96638.09
2023-12-23T14:15:44.825Z,96639.09
2023-12-23T14:18:12.054Z,96649.13
2023-12-23T14:20:39.614Z,96649.13
2023-12-23T14:23:07.825Z,96651.81
2023-12-23T14:25:35.666Z,96662.59
2023-12-23T14:28:02.778Z,96664.06
2023-12-23T14:30:29.964Z,96674.09
2023-12-23T14:32:57.149Z,96674.81
2023-12-23T14:35:24.402Z,96692.44
2023-12-23T14:37:51.647Z,96688.53
2023-12-23T14:40:19.565Z,96693.91
2023-12-23T14:42:47.084Z,96702.00
2023-12-23T14:45:14.476Z,96708.38
2023-12-23T14:47:43.227Z,96707.66
2023-12-23T14:50:10.689Z,96716.19
2023-12-23T14:52:38.111Z,96721.56
2023-12-23T14:55:05.676Z,96718.63
2023-12-23T14:57:32.884Z,96716.44
2023-12-23T15:00:00.027Z,96718.41
2023-12-23T15:02:27.242Z,96729.91
2023-12-23T15:04:54.520Z,96732.59
2023-12-23T15:07:21.673Z,96735.78
2023-12-23T15:09:50.072Z,96741.88
2023-12-23T15:12:19.614Z,96742.38
2023-12-23T15:14:47.343Z,96747.28
2023-12-23T15:17:16.590Z,96751.44
2023-12-23T15:19:43.836Z,96742.88
2023-12-23T15:22:11.159Z,96747.75
2023-12-23T15:24:40.481Z,96740.41
2023-12-23T15:27:10.366Z,96748.03
2023-12-23T15:29:38.101Z,96743.84
2023-12-23T15:32:05.348Z,96749.22
2023-12-23T15:34:32.439Z,96756.09
2023-12-23T15:36:59.540Z,96763.91
2023-12-23T15:39:26.622Z,96760.50
2023-12-23T15:41:53.768Z,96762.44
2023-12-23T15:44:21.214Z,96765.13
2023-12-23T15:46:48.538Z,96779.34
2023-12-23T15:49:15.787Z,96770.28
2023-12-23T15:51:44.531Z,96776.88
2023-12-23T15:54:11.851Z,96781.78
2023-12-23T15:56:40.149Z,96787.91
2023-12-23T15:59:09.095Z,96783.97
2023-12-23T16:01:36.246Z,96780.56
2023-12-23T16:04:03.346Z,96788.63
2023-12-23T16:06:30.644Z,96783.75
2023-12-23T16:08:58.001Z,96771.00
2023-12-23T16:11:25.251Z,96780.31
2023-12-23T16:13:52.687Z,96791.81
2023-12-23T16:16:19.834Z,96790.59
2023-12-23T16:18:47.012Z,96798.44
2023-12-23T16:21:14.228Z,96793.81
2023-12-23T16:23:41.613Z,96799.19
2023-12-23T16:26:17.217Z,96810.41
2023-12-23T16:28:46.038Z,96813.84
2023-12-23T16:31:14.118Z,96811.91
2023-12-23T16:33:41.895Z,96811.44
2023-12-23T16:36:11.529Z,96819.00
2023-12-23T16:38:38.617Z,96818.53
2023-12-23T16:41:06.029Z,96824.16
2023-12-23T16:43:33.588Z,96818.03
2023-12-23T16:46:00.757Z,96834.69
2023-12-23T16:48:28.151Z,96845.22
2023-12-23T16:50:55.410Z,96834.69
2023-12-23T16:53:22.481Z,96842.03
2023-12-23T16:55:49.665Z,96829.53
2023-12-23T16:58:16.826Z,96838.84
2023-12-23T17:00:44.000Z,96834.94
2023-12-23T17:03:11.143Z,96843.75
2023-12-23T17:05:38.637Z,96843.28
2023-12-23T17:08:06.190Z,96850.88
2023-12-23T17:10:33.390Z,96842.31
2023-12-23T17:13:02.636Z,96846.72
2023-12-23T17:15:30.031Z,96834.25
2023-12-23T17:17:57.922Z,96835.72
2023-12-23T17:20:25.143Z,96857.50
2023-12-23T17:22:55.624Z,96851.63
2023-12-23T17:25:23.100Z,96857.03
2023-12-23T17:27:50.327Z,96860.94
2023-12-23T17:30:17.532Z,96858.25
2023-12-23T17:32:44.801Z,96862.16
2023-12-23T17:35:12.043Z,96855.56
2023-12-23T17:37:39.189Z,96857.03
2023-12-23T17:40:07.187Z,96861.19
2023-12-23T17:42:34.576Z,96851.63
2023-12-23T17:45:01.912Z,96850.16
2023-12-23T17:47:29.141Z,96841.34
2023-12-23T17:49:56.338Z,96847.22
2023-12-23T17:52:23.417Z,96853.34
2023-12-23T17:54:50.542Z,96859.47
2023-12-23T17:57:17.756Z,96848.69
2023-12-23T17:59:44.954Z,96848.69
2023-12-23T18:02:12.134Z,96853.59
2023-12-23T18:04:39.296Z,96849.91
2023-12-23T18:07:09.273Z,96854.09
2023-12-23T18:09:36.547Z,96853.59
2023-12-23T18:12:03.928Z,96859.97
2023-12-23T18:14:31.123Z,96856.56
2023-12-23T18:16:58.558Z,96858.78
2023-12-23T18:19:25.720Z,96862.47
2023-12-23T18:21:52.840Z,96860.75
2023-12-23T18:24:19.949Z,96869.81
2023-12-23T18:26:47.219Z,96872.75
2023-12-23T18:29:14.342Z,96869.84
2023-12-23T18:31:41.490Z,96870.34
2023-12-23T18:34:08.848Z,96873.28
2023-12-23T18:36:36.067Z,96873.50
2023-12-23T18:39:03.140Z,96877.22
2023-12-23T18:41:30.342Z,96869.13
2023-12-23T18:43:57.461Z,96864.94
2023-12-23T18:46:24.979Z,96870.59
2023-12-23T18:48:52.159Z,96888.97
2023-12-23T18:51:19.277Z,96866.19
2023-12-23T18:53:46.474Z,96865.69
2023-12-23T18:56:16.418Z,96874.75
2023-12-23T18:58:44.612Z,96861.81
2023-12-23T19:01:11.735Z,96863.25
2023-12-23T19:03:38.896Z,96858.13
2023-12-23T19:06:06.207Z,96865.75
2023-12-23T19:08:33.401Z,96867.94
2023-12-23T19:11:00.984Z,96862.78
2023-12-23T19:13:28.539Z,96859.13
2023-12-23T19:15:55.781Z,96861.34
2023-12-23T19:18:22.912Z,96864.78
2023-12-23T19:20:50.050Z,96861.59
2023-12-23T19:23:17.423Z,96877.03
2023-12-23T19:25:45.737Z,96880.47
2023-12-23T19:28:12.931Z,96868.94
2023-12-23T19:30:40.076Z,96877.75
2023-12-23T19:33:07.891Z,96886.59
2023-12-23T19:35:35.320Z,96879.72
2023-12-23T19:38:03.396Z,96875.03
2023-12-23T19:40:30.552Z,96873.09
2023-12-23T19:42:57.814Z,96861.34
2023-12-23T19:45:25.113Z,96877.53
2023-12-23T19:47:52.466Z,96862.09
2023-12-23T19:50:20.353Z,96871.16
2023-12-23T19:52:47.486Z,96874.81
2023-12-23T19:55:14.543Z,96866.72
2023-12-23T19:57:41.727Z,96865.25
2023-12-23T20:00:10.753Z,96856.94
2023-12-23T20:02:38.123Z,96869.94
2023-12-23T20:05:05.576Z,96875.81
2023-12-23T20:07:32.787Z,96872.63
2023-12-23T20:09:59.941Z,96878.50
2023-12-23T20:12:27.139Z,96863.34
2023-12-23T20:14:54.222Z,96869.47
2023-12-23T20:17:21.412Z,96867.00
2023-12-23T20:19:48.560Z,96860.63
2023-12-23T20:22:15.649Z,96857.69
2023-12-23T20:24:45.732Z,96861.13
2023-12-23T20:27:12.844Z,96862.09
2023-12-23T20:29:40.003Z,96863.06
2023-12-23T20:32:07.315Z,96864.75
2023-12-23T20:34:34.503Z,96866.22
2023-12-23T20:37:05.764Z,96865.41
2023-12-23T20:39:32.934Z,96868.25
2023-12-23T20:42:02.846Z,96877.75
2023-12-23T20:44:31.661Z,96873.69
2023-12-23T20:46:59.048Z,96871.63
2023-12-23T20:49:27.142Z,96865.59
2023-12-23T20:51:54.255Z,96865.53
2023-12-23T20:54:21.845Z,96855.41
2023-12-23T20:56:49.083Z,96848.94
2023-12-23T20:59:16.391Z,96853.81
2023-12-23T21:01:43.511Z,96842.44
2023-12-23T21:04:10.707Z,96852.72
2023-12-23T21:06:38.121Z,96860.03
2023-12-23T21:09:08.755Z,96865.88
2023-12-23T21:11:36.053Z,96862.88
2023-12-23T21:14:03.227Z,96856.66
2023-12-23T21:16:30.329Z,96867.72
2023-12-23T21:18:57.616Z,96863.47
2023-12-23T21:21:24.715Z,96857.56
2023-12-23T21:23:51.862Z,96848.41
2023-12-23T21:26:22.822Z,96857.50
2023-12-23T21:28:50.080Z,96861.44
2023-12-23T21:31:17.403Z,96853.38
2023-12-23T21:33:44.735Z,96856.31
2023-12-23T21:36:11.889Z,96857.06
2023-12-23T21:38:39.162Z,96861.22
2023-12-23T21:41:06.377Z,96863.94
2023-12-23T21:43:33.478Z,96864.47
2023-12-23T21:46:00.871Z,96875.50
2023-12-23T21:48:28.093Z,96864.91
2023-12-23T21:50:56.440Z,96875.22
2023-12-23T21:53:24.340Z,96864.63
2023-12-23T21:55:51.801Z,96876.72
2023-12-23T21:58:18.947Z,96878.19
2023-12-23T22:00:48.516Z,96866.59
2023-12-23T22:03:15.838Z,96864.13
2023-12-23T22:05:43.054Z,96869.75
2023-12-23T22:08:10.256Z,96861.84
2023-12-23T22:10:37.473Z,96860.59
2023-12-23T22:13:04.708Z,96864.28
2023-12-23T22:15:34.334Z,96866.25
2023-12-23T22:18:01.510Z,96867.00
2023-12-23T22:20:28.652Z,96869.41
2023-12-23T22:22:56.152Z,96869.41
2023-12-23T22:25:23.327Z,96873.81
2023-12-23T22:27:50.811Z,96870.50
2023-12-23T22:30:17.972Z,96881.13
2023-12-23T22:32:45.291Z,96869.78
2023-12-23T22:35:12.512Z,96871.75
2023-12-23T22:37:39.653Z,96874.47
2023-12-23T22:40:07.399Z,96875.44
2023-12-23T22:42:34.471Z,96871.75
2023-12-23T22:45:01.681Z,96872.50
2023-12-23T22:47:30.779Z,96872.50
2023-12-23T22:49:58.028Z,96875.44
2023-12-23T22:52:25.236Z,96873.47
2023-12-23T22:54:52.397Z,96883.06
2023-12-23T22:57:19.656Z,96886.50
2023-12-23T22:59:46.735Z,96883.78
2023-12-23T23:02:14.056Z,96902.03
2023-12-23T23:04:41.488Z,96889.72
2023-12-23T23:07:08.956Z,96891.41
2023-12-23T23:09:36.716Z,96885.03
2023-12-23T23:12:04.478Z,96884.53
2023-12-23T23:14:31.635Z,96879.63
2023-12-23T23:16:58.825Z,96890.69
2023-12-23T23:19:26.072Z,96895.06
2023-12-23T23:21:53.252Z,96886.00
2023-12-23T23:24:20.422Z,96901.53
2023-12-23T23:26:47.573Z,96903.00
2023-12-23T23:29:14.724Z,96898.28
2023-12-23T23:31:41.865Z,96899.28
2023-12-23T23:34:09.071Z,96903.94
2023-12-23T23:36:36.216Z,96910.59
2023-12-23T23:39:08.116Z,96917.50
2023-12-23T23:41:36.137Z,96911.59
2023-12-23T23:44:03.318Z,96905.44
2023-12-23T23:46:30.543Z,96909.59
2023-12-23T23:48:57.613Z,96909.09
2023-12-23T23:51:25.680Z,96904.69
2023-12-23T23:53:53.345Z,96904.19
2023-12-23T23:56:21.306Z,96904.19
2023-12-23T23:58:48.992Z,96904.41
